Time;durP1;ratioP1;P1;durP2;ratioP2;P2;SDS_P1;SDS_P2;PMS_P1;PMS_P2;Temp;Humidity;BMP_temperature;BMP_pressure;BME280_temperature;BME280_humidity;BME280_pressure;Samples;Min_cycle;Max_cycle;Signal;HPM_P1;HPM_P2
2022/09/23 00:01:11;;;;;;;;;16.50;12.50;;;;;18.46;41.91;101271.94;5057191;28;45399;-66
2022/09/23 00:03:40;;;;;;;;;13.50;13.25;;;;;18.46;41.97;101271.94;5055826;28;45441;-66
2022/09/23 00:06:09;;;;;;;;;16.67;13.67;;;;;18.47;41.86;101270.16;5054004;28;46220;-65
2022/09/23 00:08:35;;;;;;;;;15.75;14.50;;;;;18.48;41.76;101267.47;5053932;28;45413;-66
2022/09/23 00:11:10;;;;;;;;;15.50;13.50;;;;;18.48;41.96;101264.75;5054401;28;45568;-66
2022/09/23 00:13:36;;;;;;;;;13.33;13.00;;;;;18.49;42.16;101265.66;5047284;28;45443;-72
2022/09/23 00:16:03;;;;;;;;;16.75;15.50;;;;;18.30;42.07;101237.66;5067135;28;47005;-72
2022/09/23 00:18:29;;;;;;;;;21.25;17.25;;;;;18.43;42.26;101261.13;5053535;28;45371;-71
2022/09/23 00:20:54;;;;;;;;;10.00;8.75;;;;;18.35;42.50;101244.00;5053153;28;45443;-70
2022/09/23 00:23:20;;;;;;;;;20.25;14.25;;;;;18.31;42.51;101239.44;5052770;28;45750;-71
2022/09/23 00:25:53;;;;;;;;;12.00;11.75;;;;;18.33;42.45;101245.75;5052590;28;52013;-72
2022/09/23 00:28:19;;;;;;;;;17.50;14.75;;;;;18.33;43.13;101249.38;5052752;28;45351;-72
2022/09/23 00:30:44;;;;;;;;;13.25;10.75;;;;;18.27;42.74;101235.84;5051976;28;45576;-71
2022/09/23 00:33:09;;;;;;;;;18.25;12.75;;;;;18.25;42.68;101229.53;5052717;28;47393;-71
2022/09/23 00:35:35;;;;;;;;;12.00;12.00;;;;;17.94;43.36;101188.00;5051382;28;65394;-71
2022/09/23 00:38:00;;;;;;;;;16.33;15.33;;;;;18.23;43.15;101242.13;5051839;28;57455;-71
2022/09/23 00:40:25;;;;;;;;;12.67;12.33;;;;;18.18;43.24;101234.03;5052774;28;50362;-71
2022/09/23 00:42:50;;;;;;;;;9.67;9.67;;;;;18.04;43.31;101208.75;5052893;28;45537;-69
2022/09/23 00:45:18;;;;;;;;;15.75;15.00;;;;;18.18;43.04;101233.09;5050816;28;46298;-70
2022/09/23 00:47:51;;;;;;;;;18.75;15.00;;;;;17.92;43.27;101195.16;5053274;28;45424;-71
2022/09/23 00:50:25;;;;;;;;;18.50;13.00;;;;;18.21;43.29;101233.13;5052305;28;45415;-72
2022/09/23 00:52:55;;;;;;;;;12.33;12.33;;;;;18.22;43.42;101233.13;5053043;28;45501;-70
2022/09/23 00:55:42;;;;;;;;;19.75;14.75;;;;;18.22;43.34;101238.53;5050050;28;45351;-70
2022/09/23 00:58:11;;;;;;;;;19.00;14.00;;;;;18.20;42.96;101226.81;5048563;28;45436;-69
2022/09/23 01:00:36;;;;;;;;;11.25;11.00;;;;;18.19;43.40;101235.81;5054913;28;45546;-71
2022/09/23 01:03:04;;;;;;;;;12.67;11.33;;;;;18.00;43.49;101204.19;5052446;28;45409;-70
2022/09/23 01:05:30;;;;;;;;;13.50;12.00;;;;;18.05;43.77;101208.75;5073818;28;47032;-71
2022/09/23 01:07:57;;;;;;;;;11.50;11.50;;;;;18.20;43.56;101229.50;5053019;28;45632;-71
2022/09/23 01:10:23;;;;;;;;;12.25;11.25;;;;;18.13;43.74;101218.66;5052157;28;45282;-71
2022/09/23 01:13:14;;;;;;;;;16.00;11.50;;;;;18.19;43.59;101233.09;5053092;28;45616;-71
2022/09/23 01:15:57;;;;;;;;;8.67;8.67;;;;;18.19;43.01;101226.81;5051565;28;46058;-68
2022/09/23 01:18:42;;;;;;;;;9.25;9.25;;;;;18.17;42.95;101229.50;5051855;28;45548;-70
2022/09/23 01:21:21;;;;;;;;;9.00;8.00;;;;;18.11;42.85;101220.47;5050004;28;45508;-71
2022/09/23 01:24:06;;;;;;;;;8.67;7.33;;;;;18.14;42.87;101221.38;5052986;28;45617;-72
2022/09/23 01:26:34;;;;;;;;;8.33;6.67;;;;;18.13;42.70;101214.19;5051549;28;45938;-71
2022/09/23 01:29:47;;;;;;;;;12.33;9.33;;;;;18.12;42.79;101209.66;5052505;28;45479;-72
2022/09/23 01:32:31;;;;;;;;;11.67;9.00;;;;;18.07;42.87;101200.63;5031713;28;45379;-70
2022/09/23 01:35:06;;;;;;;;;13.00;10.00;;;;;18.09;42.69;101196.13;5052413;28;45246;-70
2022/09/23 01:37:49;;;;;;;;;15.50;10.25;;;;;18.09;43.30;101200.66;5052912;28;45464;-71
2022/09/23 01:40:24;;;;;;;;;11.00;11.00;;;;;18.09;44.12;101189.84;5055388;28;45700;-68
2022/09/23 01:43:03;;;;;;;;;11.33;10.33;;;;;18.04;43.79;101193.41;5053322;28;45489;-69
2022/09/23 01:45:34;;;;;;;;;14.67;11.33;;;;;18.04;44.39;101189.81;5056214;28;45448;-72
2022/09/23 01:48:09;;;;;;;;;13.00;10.25;;;;;18.01;44.36;101196.09;5056647;28;45446;-71
2022/09/23 01:50:55;;;;;;;;;18.00;13.25;;;;;18.04;44.41;101195.22;5054959;28;45488;-70
2022/09/23 01:53:28;;;;;;;;;14.67;12.67;;;;;17.98;44.44;101185.31;5055552;28;45852;-71
2022/09/23 01:55:59;;;;;;;;;12.67;12.00;;;;;18.05;44.76;101203.34;5054509;28;45701;-71
2022/09/23 01:58:32;;;;;;;;;12.00;12.00;;;;;18.02;44.82;101200.63;5051303;28;46283;-70
2022/09/23 02:01:01;;;;;;;;;16.50;13.00;;;;;18.03;44.73;101199.72;5053047;28;44949;-72
2022/09/23 02:03:36;;;;;;;;;14.33;12.33;;;;;17.86;44.74;101169.88;5054994;28;45504;-72
2022/09/23 02:06:15;;;;;;;;;15.67;13.33;;;;;18.06;44.83;101206.94;5055270;28;45815;-68
2022/09/23 02:08:46;;;;;;;;;11.75;11.75;;;;;18.07;44.17;101200.63;5049186;28;46281;-72
2022/09/23 02:11:14;;;;;;;;;17.00;10.33;;;;;17.90;44.19;101165.47;5054329;28;45467;-71
2022/09/23 02:13:49;;;;;;;;;11.67;11.67;;;;;18.05;44.33;101211.44;5055867;28;45501;-70
2022/09/23 02:16:38;;;;;;;;;11.33;9.00;;;;;18.04;43.95;101197.91;5055535;28;45498;-70
2022/09/23 02:19:43;;;;;;;;;11.33;9.33;;;;;18.04;43.87;101200.63;5053130;28;45611;-70
2022/09/23 02:22:34;;;;;;;;;10.33;8.67;;;;;18.02;43.60;101200.63;5010816;28;45838;-70
2022/09/23 02:24:59;;;;;;;;;13.33;9.67;;;;;18.01;43.52;101198.81;5055470;28;45451;-72
2022/09/23 02:27:50;;;;;;;;;10.00;8.67;;;;;18.01;43.40;101192.50;5055272;28;45611;-70
2022/09/23 02:30:30;;;;;;;;;12.67;8.33;;;;;17.97;43.42;101196.09;5056111;28;45397;-71
2022/09/23 02:33:05;;;;;;;;;6.67;6.67;;;;;17.78;43.07;101157.25;5056635;28;45581;-72
2022/09/23 02:35:42;;;;;;;;;8.33;6.00;;;;;17.83;43.18;101163.56;5055135;28;45502;-72
2022/09/23 02:38:28;;;;;;;;;8.67;7.67;;;;;17.97;42.79;101191.59;5054639;28;45437;-72
2022/09/23 02:41:08;;;;;;;;;9.33;8.00;;;;;17.97;42.63;101185.28;5049448;28;45512;-71
2022/09/23 02:43:50;;;;;;;;;10.00;6.67;;;;;17.96;42.42;101188.88;5055012;28;46180;-71
2022/09/23 02:46:16;;;;;;;;;7.67;7.33;;;;;17.99;42.80;101184.38;5054070;28;45399;-72
2022/09/23 02:48:50;;;;;;;;;9.33;7.33;;;;;18.02;42.50;101180.81;5055900;28;45575;-71
2022/09/23 02:51:15;;;;;;;;;9.67;5.33;;;;;18.03;42.85;101182.59;5051983;28;46305;-71
2022/09/23 02:53:42;;;;;;;;;12.33;8.67;;;;;17.95;43.00;101169.06;5055850;28;45507;-72
2022/09/23 02:56:16;;;;;;;;;9.00;8.33;;;;;18.01;42.53;101169.06;5055532;28;45486;-71
2022/09/23 02:58:42;;;;;;;;;5.00;5.00;;;;;17.99;42.89;101178.09;5053960;28;45619;-70
2022/09/23 03:01:31;;;;;;;;;8.67;6.33;;;;;17.83;42.71;101155.47;5070016;28;48355;-72
2022/09/23 03:04:21;;;;;;;;;6.00;6.00;;;;;17.95;42.40;101174.47;5053961;28;45514;-71
2022/09/23 03:07:11;;;;;;;;;5.67;5.67;;;;;17.96;42.64;101172.66;5058719;28;45473;-71
2022/09/23 03:10:06;;;;;;;;;11.67;8.67;;;;;17.97;42.62;101174.47;5057088;28;45512;-71
2022/09/23 03:13:21;;;;;;;;;8.33;5.00;;;;;17.93;43.04;101167.25;5032232;28;47186;-71
2022/09/23 03:16:14;;;;;;;;;9.33;8.33;;;;;17.73;43.38;101138.31;5038169;28;46286;-71
2022/09/23 03:19:01;;;;;;;;;10.33;9.00;;;;;17.91;43.53;101169.06;5052674;28;45406;-71
2022/09/23 03:21:36;;;;;;;;;11.00;8.33;;;;;17.91;43.48;101159.13;5054460;28;45629;-70
2022/09/23 03:24:06;;;;;;;;;14.00;11.33;;;;;17.82;43.51;101149.16;5051099;28;46076;-71
2022/09/23 03:26:35;;;;;;;;;9.33;7.00;;;;;17.94;43.93;101166.34;5055615;28;45614;-69
2022/09/23 03:29:10;;;;;;;;;9.33;8.67;;;;;17.82;43.66;101143.75;5051651;28;45496;-71
2022/09/23 03:31:38;;;;;;;;;10.33;8.67;;;;;17.95;43.75;101168.16;5053619;28;45520;-72
2022/09/23 03:34:11;;;;;;;;;10.00;10.00;;;;;17.84;43.71;101146.47;5052174;28;46138;-71
2022/09/23 03:36:59;;;;;;;;;9.00;7.00;;;;;17.93;43.84;101159.13;5050984;28;45482;-72
2022/09/23 03:39:40;;;;;;;;;9.00;7.00;;;;;17.91;43.79;101160.94;5050629;28;45310;-70
2022/09/23 03:42:18;;;;;;;;;11.33;9.00;;;;;17.89;43.95;101165.44;5052300;28;45538;-72
2022/09/23 03:44:45;;;;;;;;;8.00;8.00;;;;;17.88;43.56;101167.22;5056659;28;45381;-71
2022/09/23 03:47:13;;;;;;;;;11.33;10.00;;;;;17.92;43.97;101168.13;5056001;28;45424;-72
2022/09/23 03:49:41;;;;;;;;;11.00;8.00;;;;;17.91;43.81;101171.75;5053899;28;45557;-70
2022/09/23 03:52:07;;;;;;;;;8.33;8.33;;;;;17.92;44.11;101171.75;5053753;28;45635;-71
2022/09/23 03:54:32;;;;;;;;;9.00;8.00;;;;;17.88;44.30;101166.34;5052945;28;61976;-72
2022/09/23 03:56:59;;;;;;;;;10.33;7.33;;;;;17.93;43.74;101172.66;5053576;28;45462;-72
2022/09/23 03:59:26;;;;;;;;;7.00;7.00;;;;;17.92;43.99;101171.75;5054154;28;45466;-72
2022/09/23 04:01:51;;;;;;;;;9.33;8.00;;;;;17.92;44.13;101171.75;5051016;28;45411;-70
2022/09/23 04:04:17;;;;;;;;;8.00;8.00;;;;;17.93;44.12;101178.06;5052179;28;46058;-70
2022/09/23 04:06:42;;;;;;;;;10.67;9.67;;;;;17.91;44.45;101175.34;5053780;28;45378;-73
2022/09/23 04:09:08;;;;;;;;;10.33;8.67;;;;;17.83;44.21;101172.56;5053888;28;45551;-70
2022/09/23 04:11:34;;;;;;;;;14.25;12.75;;;;;17.86;44.15;101175.28;5052509;28;45495;-72
2022/09/23 04:14:00;;;;;;;;;12.50;12.50;;;;;17.88;44.56;101179.84;5055201;28;47151;-71
2022/09/23 04:16:25;;;;;;;;;9.00;9.00;;;;;17.87;44.28;101181.66;5053188;28;45342;-68
2022/09/23 04:18:51;;;;;;;;;10.33;10.00;;;;;17.85;44.90;101173.50;5052923;28;45418;-70
2022/09/23 04:21:16;;;;;;;;;12.75;10.75;;;;;17.81;44.72;101173.50;5052467;28;45564;-69
2022/09/23 04:23:41;;;;;;;;;11.25;9.50;;;;;17.77;44.99;101171.66;5053405;28;46121;-71
2022/09/23 04:26:07;;;;;;;;;11.00;11.00;;;;;17.72;45.49;101168.03;5051951;28;45492;-71
2022/09/23 04:28:33;;;;;;;;;9.00;7.67;;;;;17.67;45.16;101170.75;5049183;28;45486;-71
2022/09/23 04:31:02;;;;;;;;;9.75;9.00;;;;;17.68;45.38;101169.81;5051809;28;45514;-70
2022/09/23 04:33:27;;;;;;;;;9.00;8.25;;;;;17.70;45.63;101170.72;5051597;28;45488;-72
2022/09/23 04:35:54;;;;;;;;;9.00;9.00;;;;;17.64;45.41;101170.72;5054194;28;45467;-72
2022/09/23 04:38:20;;;;;;;;;10.50;10.50;;;;;17.63;45.64;101166.22;5052030;28;45387;-72
2022/09/23 04:40:46;;;;;;;;;10.00;9.00;;;;;17.57;45.17;101150.91;5052918;28;45473;-72
2022/09/23 04:43:14;;;;;;;;;10.25;10.25;;;;;17.60;44.95;101153.56;5052701;28;46208;-72
2022/09/23 04:45:40;;;;;;;;;13.33;10.33;;;;;17.66;45.00;101160.81;5050068;28;45412;-72
2022/09/23 04:48:06;;;;;;;;;11.75;9.50;;;;;17.63;45.28;101152.69;5053610;28;45442;-71
2022/09/23 04:50:32;;;;;;;;;11.25;11.25;;;;;17.66;45.89;101166.22;5052323;28;45428;-72
2022/09/23 04:52:58;;;;;;;;;10.67;10.00;;;;;17.47;46.24;101143.63;5052320;28;47340;-72
2022/09/23 04:55:23;;;;;;;;;16.00;11.75;;;;;17.58;46.44;101162.59;5051448;28;45380;-71
2022/09/23 04:57:49;;;;;;;;;9.50;8.75;;;;;17.48;46.01;101143.63;5052859;28;45595;-71
2022/09/23 05:00:14;;;;;;;;;11.00;9.50;;;;;17.52;45.96;101152.66;5051124;28;45654;-72
2022/09/23 05:02:44;;;;;;;;;10.00;9.67;;;;;17.57;46.35;101155.38;5050252;28;47659;-70
2022/09/23 05:05:11;;;;;;;;;12.75;10.50;;;;;17.50;46.40;101143.63;5054151;28;45283;-72
2022/09/23 05:07:36;;;;;;;;;10.33;8.67;;;;;17.52;46.20;101144.53;5052713;28;45448;-71
2022/09/23 05:10:02;;;;;;;;;10.50;9.50;;;;;17.55;46.40;101147.25;5050314;28;45575;-71
2022/09/23 05:12:27;;;;;;;;;11.75;10.75;;;;;17.52;46.25;101136.44;5051010;28;47603;-71
2022/09/23 05:14:53;;;;;;;;;14.33;10.67;;;;;17.29;46.28;101090.41;5054854;28;56466;-71
2022/09/23 05:17:20;;;;;;;;;13.00;11.75;;;;;17.52;46.59;101133.72;5050917;27;45508;-71
2022/09/23 05:19:45;;;;;;;;;13.25;11.25;;;;;17.59;46.48;101140.97;5056262;28;45489;-71
2022/09/23 05:22:10;;;;;;;;;11.75;10.75;;;;;17.58;47.07;101132.88;5055008;28;45708;-71
2022/09/23 05:24:35;;;;;;;;;15.50;14.25;;;;;17.47;47.26;101131.03;5050857;28;53889;-71
2022/09/23 05:27:01;;;;;;;;;18.25;16.00;;;;;17.50;47.08;101138.22;5052565;28;45461;-71
2022/09/23 05:29:27;;;;;;;;;15.50;13.25;;;;;17.45;47.30;101150.81;5049827;28;46306;-71
2022/09/23 05:31:53;;;;;;;;;16.50;13.00;;;;;17.35;47.88;101138.19;5048474;28;45537;-70
2022/09/23 05:34:18;;;;;;;;;17.00;15.00;;;;;17.40;47.53;101142.69;5048719;28;45507;-70
2022/09/23 05:36:43;;;;;;;;;10.33;8.33;;;;;17.43;47.43;101139.13;5052330;28;45488;-71
2022/09/23 05:39:09;;;;;;;;;17.25;17.00;;;;;17.43;47.14;101139.13;5047868;28;45463;-71
2022/09/23 05:41:34;;;;;;;;;31.25;28.50;;;;;17.41;47.03;101143.63;5053850;28;70514;-68
2022/09/23 05:44:00;;;;;;;;;16.00;13.50;;;;;17.21;47.21;101105.69;5052535;28;45409;-70
2022/09/23 05:46:28;;;;;;;;;21.25;14.75;;;;;17.40;47.22;101150.78;5049786;28;45584;-70
2022/09/23 05:48:56;;;;;;;;;20.00;16.25;;;;;17.39;48.04;101149.00;5052689;28;45603;-71
2022/09/23 05:51:24;;;;;;;;;19.75;13.75;;;;;17.32;47.63;101139.06;5054827;28;45650;-70
2022/09/23 05:53:51;;;;;;;;;13.00;11.75;;;;;17.35;47.79;101141.78;5063901;28;45418;-70
2022/09/23 05:56:19;;;;;;;;;16.33;14.67;;;;;17.36;48.06;101150.81;5057554;28;45838;-71
2022/09/23 05:58:47;;;;;;;;;19.00;14.75;;;;;17.36;48.19;101146.28;5057846;28;45485;-71
2022/09/23 06:01:16;;;;;;;;;17.00;15.50;;;;;17.32;47.89;101149.84;5059438;28;45381;-70
2022/09/23 06:03:45;;;;;;;;;18.25;18.25;;;;;17.36;48.06;101148.09;5068210;28;45414;-69
2022/09/23 06:06:13;;;;;;;;;26.25;24.50;;;;;17.16;48.45;101108.38;5062471;28;45195;-71
2022/09/23 06:08:39;;;;;;;;;16.25;13.75;;;;;17.29;48.16;101129.16;5056201;28;45280;-71
2022/09/23 06:11:06;;;;;;;;;24.50;22.50;;;;;17.37;48.47;101153.47;5070722;28;46644;-70
2022/09/23 06:13:36;;;;;;;;;19.75;16.50;;;;;17.33;48.37;101139.97;5064686;28;45193;-71
2022/09/23 06:16:03;;;;;;;;;15.00;13.00;;;;;17.25;48.60;101134.53;5061946;28;45356;-70
2022/09/23 06:18:29;;;;;;;;;18.00;16.50;;;;;17.35;48.77;101148.97;5067120;28;44999;-70
2022/09/23 06:20:54;;;;;;;;;23.50;19.50;;;;;17.23;48.67;101131.81;5053935;28;62647;-71
2022/09/23 06:23:19;;;;;;;;;14.75;14.75;;;;;17.28;48.47;101131.84;5062688;28;63589;-71
2022/09/23 06:25:44;;;;;;;;;16.50;13.25;;;;;17.19;48.86;101115.59;5074321;28;45436;-71
2022/09/23 06:28:11;;;;;;;;;15.00;13.75;;;;;17.35;48.78;101143.59;5055453;28;45546;-70
2022/09/23 06:30:38;;;;;;;;;17.25;14.00;;;;;17.30;48.52;101146.25;5054332;28;46099;-70
2022/09/23 06:33:04;;;;;;;;;16.75;15.75;;;;;17.33;48.12;101157.06;5056596;28;45422;-70
2022/09/23 06:35:31;;;;;;;;;21.25;17.00;;;;;17.36;48.74;101151.69;5056461;28;45403;-70
2022/09/23 06:37:56;;;;;;;;;16.25;11.00;;;;;17.25;48.50;101142.63;5057989;28;45445;-68
2022/09/23 06:40:22;;;;;;;;;26.50;16.75;;;;;17.32;48.96;101152.56;5055521;28;45921;-70
2022/09/23 06:42:55;;;;;;;;;25.00;16.00;;;;;17.19;49.05;101137.19;5055244;28;45456;-70
2022/09/23 06:45:20;;;;;;;;;21.25;17.50;;;;;17.36;48.88;101167.00;5054675;28;45676;-70
2022/09/23 06:47:48;;;;;;;;;17.75;16.50;;;;;17.34;48.68;101167.00;5054353;28;48337;-71
2022/09/23 06:50:13;;;;;;;;;17.25;17.25;;;;;17.23;48.83;101139.03;5052534;28;45315;-70
2022/09/23 06:52:39;;;;;;;;;22.25;18.50;;;;;17.20;48.91;101142.59;5054437;28;45460;-71
2022/09/23 06:55:05;;;;;;;;;21.75;19.00;;;;;17.32;48.99;101157.97;5054804;28;55122;-70
2022/09/23 06:57:31;;;;;;;;;20.25;16.25;;;;;17.32;48.99;101155.25;5054520;28;45589;-70
2022/09/23 06:59:58;;;;;;;;;18.75;18.75;;;;;17.37;48.52;101158.88;5053604;28;47198;-70
2022/09/23 07:02:24;;;;;;;;;18.50;15.50;;;;;17.37;48.61;101161.56;5055743;28;46115;-70
2022/09/23 07:04:50;;;;;;;;;19.00;17.25;;;;;17.41;48.45;101154.41;5059755;28;45401;-70
2022/09/23 07:07:17;;;;;;;;;20.50;16.25;;;;;17.44;48.17;101151.69;5056362;28;45452;-70
2022/09/23 07:09:43;;;;;;;;;19.50;17.00;;;;;17.40;48.50;101145.38;5051014;28;46616;-69
2022/09/23 07:12:09;;;;;;;;;18.25;16.50;;;;;17.04;47.52;101093.03;5048190;28;45649;-70
2022/09/23 07:14:34;;;;;;;;;21.75;14.25;;;;;17.47;47.60;101160.75;5051240;28;45630;-70
2022/09/23 07:16:59;;;;;;;;;18.50;15.75;;;;;17.46;47.97;101161.63;5054495;28;45519;-70
2022/09/23 07:19:25;;;;;;;;;20.75;19.75;;;;;17.38;47.63;101139.09;5048572;28;46851;-69
2022/09/23 07:21:50;;;;;;;;;22.50;15.25;;;;;17.45;47.53;101156.22;5053671;28;57637;-70
2022/09/23 07:24:16;;;;;;;;;17.25;13.25;;;;;17.53;47.43;101162.56;5055045;28;45862;-70
2022/09/23 07:26:42;;;;;;;;;16.50;12.25;;;;;17.58;47.07;101154.47;5054846;28;45530;-69
2022/09/23 07:29:12;;;;;;;;;22.25;16.00;;;;;17.48;47.37;101137.34;5053906;28;46278;-70
2022/09/23 07:31:37;;;;;;;;;19.25;15.25;;;;;17.50;46.70;101136.47;5054627;28;44800;-70
2022/09/23 07:34:03;;;;;;;;;16.25;16.25;;;;;17.65;46.84;101156.31;5053147;28;45488;-70
2022/09/23 07:36:31;;;;;;;;;15.00;13.00;;;;;17.53;46.96;101132.84;5058430;28;45214;-70
2022/09/23 07:39:00;;;;;;;;;16.00;13.25;;;;;17.65;46.35;101138.31;5050755;28;46197;-71
2022/09/23 07:41:27;;;;;;;;;20.00;18.75;;;;;17.51;46.45;101126.53;5052175;28;45600;-71
2022/09/23 07:43:57;;;;;;;;;16.75;14.00;;;;;17.55;46.15;101151.78;5053111;28;45525;-71
2022/09/23 07:46:24;;;;;;;;;18.75;16.75;;;;;17.55;45.80;101163.47;5054338;28;45501;-71
2022/09/23 07:48:51;;;;;;;;;16.25;13.50;;;;;17.44;46.14;101136.44;5050759;28;46265;-71
2022/09/23 07:51:17;;;;;;;;;21.75;17.75;;;;;17.66;46.07;101167.13;5053029;28;45323;-69
2022/09/23 07:53:46;;;;;;;;;17.75;15.50;;;;;17.74;45.89;101158.16;5052579;28;45589;-71
2022/09/23 07:56:11;;;;;;;;;15.50;13.75;;;;;17.55;46.23;101125.66;5053637;28;45516;-70
2022/09/23 07:58:37;;;;;;;;;20.75;15.25;;;;;17.78;45.65;101163.56;5051665;28;45682;-72
2022/09/23 08:01:07;;;;;;;;;17.75;17.50;;;;;17.76;45.14;101162.66;5053573;28;45377;-70
2022/09/23 08:03:34;;;;;;;;;19.00;16.50;;;;;17.50;45.46;101108.53;5052406;28;45498;-70
2022/09/23 08:06:07;;;;;;;;;20.50;19.50;;;;;18.00;45.40;101186.19;5052531;28;45559;-71
2022/09/23 08:08:33;;;;;;;;;18.50;17.50;;;;;17.83;45.30;101145.53;5054069;28;46124;-70
2022/09/23 08:11:06;;;;;;;;;26.25;18.25;;;;;18.11;45.74;101194.31;5050663;28;45908;-70
2022/09/23 08:13:32;;;;;;;;;21.75;19.50;;;;;18.13;45.39;101200.66;5050569;28;45262;-70
2022/09/23 08:15:57;;;;;;;;;22.75;20.00;;;;;18.18;45.33;101196.16;5052706;28;45262;-70
2022/09/23 08:18:23;;;;;;;;;21.75;18.00;;;;;18.27;45.13;101186.25;5053764;28;45325;-70
2022/09/23 08:20:49;;;;;;;;;22.00;19.25;;;;;18.33;44.63;101181.75;5053332;28;45539;-70
2022/09/23 08:23:15;;;;;;;;;20.25;18.25;;;;;18.34;44.80;101186.25;5053659;28;45361;-71
2022/09/23 08:25:44;;;;;;;;;21.50;19.00;;;;;18.31;44.91;101171.81;5054007;28;45444;-70
2022/09/23 08:28:10;;;;;;;;;21.75;20.00;;;;;18.46;44.81;101185.34;5053379;28;45477;-71
2022/09/23 08:30:37;;;;;;;;;24.75;19.75;;;;;18.48;44.72;101191.69;5068845;27;45514;-70
2022/09/23 08:33:03;;;;;;;;;20.25;19.50;;;;;18.59;44.32;101194.41;5053229;28;45426;-70
2022/09/23 08:35:28;;;;;;;;;26.00;21.00;;;;;18.31;44.15;101140.25;5053641;28;45530;-70
2022/09/23 08:37:54;;;;;;;;;23.25;18.75;;;;;18.73;43.91;101189.00;5053612;28;45396;-70
2022/09/23 08:40:19;;;;;;;;;54.75;43.00;;;;;18.78;43.99;101188.09;5053351;28;45344;-70
2022/09/23 08:42:45;;;;;;;;;28.25;21.75;;;;;18.72;44.06;101163.72;5053954;28;45452;-70
2022/09/23 08:45:19;;;;;;;;;22.00;19.25;;;;;18.89;43.98;101176.38;5053792;28;45389;-71
2022/09/23 08:47:53;;;;;;;;;31.75;22.00;;;;;18.91;43.42;101185.41;5053381;28;46119;-71
2022/09/23 08:50:20;;;;;;;;;46.50;36.25;;;;;19.02;43.59;101182.69;5052956;28;45434;-70
2022/09/23 08:53:00;;;;;;;;;21.50;21.25;;;;;18.72;43.23;101112.28;5053077;28;45314;-70
2022/09/23 08:55:42;;;;;;;;;28.25;23.25;;;;;19.12;42.96;101179.97;5053341;28;45539;-71
2022/09/23 08:58:37;;;;;;;;;29.00;22.00;;;;;19.14;43.23;101179.97;5047568;28;46468;-71
2022/09/23 09:01:24;;;;;;;;;21.75;21.00;;;;;19.20;43.01;101179.94;5054356;28;45452;-70
2022/09/23 09:03:54;;;;;;;;;22.75;21.75;;;;;19.21;43.23;101170.91;5054715;28;45492;-71
2022/09/23 09:06:32;;;;;;;;;24.75;22.25;;;;;19.17;42.92;101181.75;5048036;28;45496;-69
2022/09/23 09:09:01;;;;;;;;;25.75;22.25;;;;;19.19;43.08;101170.03;5049268;28;45465;-70
2022/09/23 09:11:37;;;;;;;;;28.75;25.75;;;;;19.21;42.81;101184.47;5053078;28;45488;-71
2022/09/23 09:14:47;;;;;;;;;19.25;18.00;;;;;19.24;42.98;101179.03;5053324;28;45347;-70
2022/09/23 09:17:23;;;;;;;;;30.50;23.25;;;;;19.34;42.36;101169.06;5047726;28;45370;-71
2022/09/23 09:19:54;;;;;;;;;25.50;21.50;;;;;19.37;42.13;101171.78;5053337;28;45096;-70
2022/09/23 09:22:59;;;;;;;;;10.25;9.25;;;;;19.45;42.03;101167.25;5053531;28;45632;-71
2022/09/23 09:25:31;;;;;;;;;22.25;18.75;;;;;19.51;41.64;101171.72;5045781;28;45427;-71
2022/09/23 09:27:57;;;;;;;;;23.75;17.25;;;;;19.54;41.48;101160.88;5052717;28;45354;-71
2022/09/23 09:30:24;;;;;;;;;23.75;20.50;;;;;19.54;40.98;101160.88;5068509;28;48290;-69
2022/09/23 09:33:12;;;;;;;;;25.50;21.25;;;;;19.60;41.19;101165.34;5052648;28;45517;-71
2022/09/23 09:35:56;;;;;;;;;24.00;19.75;;;;;19.51;40.99;101142.78;5051169;28;45440;-71
2022/09/23 09:38:21;;;;;;;;;38.00;32.00;;;;;19.34;41.30;101095.94;5053158;28;45495;-72
2022/09/23 09:40:47;;;;;;;;;25.50;22.75;;;;;19.78;41.21;101156.28;5052433;28;46885;-71
2022/09/23 09:43:22;;;;;;;;;25.25;23.25;;;;;19.94;41.04;101159.81;5068007;28;45460;-70
2022/09/23 09:45:54;;;;;;;;;34.00;29.25;;;;;20.01;40.93;101156.13;5046297;28;45535;-71
2022/09/23 09:48:31;;;;;;;;;24.00;19.00;;;;;20.03;40.72;101163.38;5047258;28;45443;-72
2022/09/23 09:51:17;;;;;;;;;24.00;22.25;;;;;20.06;40.76;101157.00;5053291;28;46963;-72
2022/09/23 09:53:43;;;;;;;;;22.75;22.50;;;;;20.09;40.51;101153.38;5052348;28;45516;-71
2022/09/23 09:56:11;;;;;;;;;28.25;25.50;;;;;20.12;40.59;101161.50;5052879;28;45329;-72
2022/09/23 09:58:53;;;;;;;;;32.50;27.75;;;;;20.13;40.43;101137.09;5052094;28;45487;-71
2022/09/23 10:01:33;;;;;;;;;27.25;24.25;;;;;20.27;40.28;101142.41;5054902;28;45412;-72
2022/09/23 10:04:20;;;;;;;;;33.00;22.75;;;;;20.42;40.08;101158.56;5055598;28;45479;-71
2022/09/23 10:07:03;;;;;;;;;23.00;20.00;;;;;20.41;39.71;101151.34;5056272;28;45562;-72
2022/09/23 10:09:33;;;;;;;;;26.25;22.75;;;;;20.41;39.88;101161.31;5055319;28;45570;-72
2022/09/23 10:12:14;;;;;;;;;24.75;21.25;;;;;20.41;39.86;101148.63;5055402;28;46534;-71
2022/09/23 10:14:41;;;;;;;;;29.75;25.00;;;;;20.49;39.68;101139.53;5055748;28;45493;-71
2022/09/23 10:17:13;;;;;;;;;22.25;20.75;;;;;20.51;39.34;101148.53;5055546;28;45651;-72
2022/09/23 10:19:46;;;;;;;;;21.25;20.50;;;;;20.48;39.04;101140.44;5055581;28;45608;-72
2022/09/23 10:22:19;;;;;;;;;21.50;21.00;;;;;20.55;39.22;101140.38;5070958;28;47724;-72
2022/09/23 10:24:51;;;;;;;;;23.25;20.75;;;;;20.61;39.23;101139.44;5055548;28;45394;-72
2022/09/23 10:27:26;;;;;;;;;21.75;20.25;;;;;20.68;38.47;101141.19;5055604;28;45491;-71
2022/09/23 10:29:55;;;;;;;;;23.25;18.50;;;;;20.73;38.39;101136.63;5068937;27;45625;-71
2022/09/23 10:32:25;;;;;;;;;25.00;23.75;;;;;20.77;38.43;101132.06;5070685;28;47459;-71
2022/09/23 10:34:53;;;;;;;;;35.75;29.00;;;;;20.75;38.60;101121.22;5055325;28;45732;-71
2022/09/23 10:37:34;;;;;;;;;24.75;22.00;;;;;20.85;38.72;101127.44;5055668;28;45612;-71
2022/09/23 10:49:02;;;;;;;;;29.25;22.50;;;;;20.76;37.98;101119.41;5055469;28;45466;-70
2022/09/23 10:51:40;;;;;;;;;27.50;24.00;;;;;20.83;38.02;101131.13;5071361;28;45503;-71
2022/09/23 10:54:29;;;;;;;;;36.50;23.25;;;;;20.48;37.83;101053.59;5054865;28;46586;-70
2022/09/23 10:57:36;;;;;;;;;29.00;24.50;;;;;20.90;37.32;101119.25;5071643;28;45595;-71
2022/09/23 10:59:55;;;;;;;;;25.25;23.00;;;;;20.89;37.85;101117.47;5049149;28;45512;-71
2022/09/23 11:02:39;;;;;;;;;29.50;21.50;;;;;21.09;37.38;101118.16;5056532;28;45333;-71
2022/09/23 11:05:45;;;;;;;;;22.75;19.50;;;;;21.15;37.14;101112.66;5055511;28;45993;-71
2022/09/23 11:08:35;;;;;;;;;28.50;23.50;;;;;21.26;36.90;101106.19;5050300;28;45637;-72
2022/09/23 11:11:38;;;;;;;;;27.75;23.75;;;;;21.45;36.76;101109.56;5054387;28;45641;-71
2022/09/23 11:14:15;;;;;;;;;22.00;20.50;;;;;21.59;36.32;101104.00;5055184;28;45367;-71
2022/09/23 11:16:50;;;;;;;;;21.67;19.67;;;;;21.67;36.16;101100.25;5054652;28;45437;-71
2022/09/23 11:19:42;;;;;;;;;26.25;22.50;;;;;21.76;35.96;101101.91;5054865;28;45374;-70
2022/09/23 11:22:31;;;;;;;;;35.25;23.00;;;;;21.85;35.67;101099.06;5049731;28;45410;-71
2022/09/23 11:25:15;;;;;;;;;18.67;17.00;;;;;21.76;35.37;101063.84;5052496;28;45654;-71
2022/09/23 11:27:40;;;;;;;;;20.33;16.00;;;;;21.87;35.13;101086.34;5053858;28;46013;-70
2022/09/23 11:30:15;;;;;;;;;23.33;21.00;;;;;21.85;35.27;101079.16;5054003;28;45968;-72
2022/09/23 11:33:12;;;;;;;;;26.50;21.00;;;;;21.84;35.32;101085.50;5069880;28;45368;-71
2022/09/23 11:35:48;;;;;;;;;22.50;18.75;;;;;21.57;35.14;101046.91;5047253;28;45455;-71
2022/09/23 11:38:23;;;;;;;;;54.50;44.50;;;;;21.77;34.83;101070.19;5054400;28;45427;-71
2022/09/23 11:40:53;;;;;;;;;23.75;22.25;;;;;21.71;35.01;101050.34;5054352;28;45475;-71
2022/09/23 11:43:27;;;;;;;;;19.67;17.67;;;;;21.80;35.19;101070.16;5054478;28;45508;-71